sensor_id;sensor_type;location;lat;lon;timestamp;temperature;humidity
810;DHT22;387;48.772;9.186;2022-12-29T00:02:14;9.90;72.60
810;DHT22;387;48.772;9.186;2022-12-29T00:04:40;9.90;72.70
810;DHT22;387;48.772;9.186;2022-12-29T00:07:06;10.00;72.40
810;DHT22;387;48.772;9.186;2022-12-29T00:09:32;10.00;72.40
810;DHT22;387;48.772;9.186;2022-12-29T00:11:59;10.00;72.40
810;DHT22;387;48.772;9.186;2022-12-29T00:14:26;10.00;72.40
810;DHT22;387;48.772;9.186;2022-12-29T00:17:11;10.00;72.40
810;DHT22;387;48.772;9.186;2022-12-29T00:19:36;10.00;72.40
810;DHT22;387;48.772;9.186;2022-12-29T00:22:21;9.90;72.70
810;DHT22;387;48.772;9.186;2022-12-29T00:25:07;10.00;72.60
810;DHT22;387;48.772;9.186;2022-12-29T00:27:52;10.00;72.60
810;DHT22;387;48.772;9.186;2022-12-29T00:30:36;10.00;72.60
810;DHT22;387;48.772;9.186;2022-12-29T00:33:24;10.10;72.10
810;DHT22;387;48.772;9.186;2022-12-29T00:36:17;10.30;72.10
810;DHT22;387;48.772;9.186;2022-12-29T00:38:48;10.30;71.80
810;DHT22;387;48.772;9.186;2022-12-29T00:41:33;10.30;72.00
810;DHT22;387;48.772;9.186;2022-12-29T00:44:17;10.40;71.80
810;DHT22;387;48.772;9.186;2022-12-29T00:46:43;10.40;71.80
810;DHT22;387;48.772;9.186;2022-12-29T00:49:11;10.40;71.80
810;DHT22;387;48.772;9.186;2022-12-29T00:52:07;10.30;71.80
810;DHT22;387;48.772;9.186;2022-12-29T00:54:37;10.40;71.70
810;DHT22;387;48.772;9.186;2022-12-29T00:57:05;10.40;71.80
810;DHT22;387;48.772;9.186;2022-12-29T00:59:30;10.40;72.00
810;DHT22;387;48.772;9.186;2022-12-29T01:01:57;10.40;72.00
810;DHT22;387;48.772;9.186;2022-12-29T01:04:25;10.40;71.80
810;DHT22;387;48.772;9.186;2022-12-29T01:06:51;10.60;71.30
810;DHT22;387;48.772;9.186;2022-12-29T01:09:18;10.90;70.50
810;DHT22;387;48.772;9.186;2022-12-29T01:12:06;11.10;70.10
810;DHT22;387;48.772;9.186;2022-12-29T01:14:32;11.20;69.70
810;DHT22;387;48.772;9.186;2022-12-29T01:16:57;11.20;69.50
810;DHT22;387;48.772;9.186;2022-12-29T01:19:24;11.30;69.40
810;DHT22;387;48.772;9.186;2022-12-29T01:21:49;11.40;69.20
810;DHT22;387;48.772;9.186;2022-12-29T01:24:17;11.50;69.10
810;DHT22;387;48.772;9.186;2022-12-29T01:26:43;11.50;68.80
810;DHT22;387;48.772;9.186;2022-12-29T01:29:09;11.50;68.60
810;DHT22;387;48.772;9.186;2022-12-29T01:31:35;11.60;68.80
810;DHT22;387;48.772;9.186;2022-12-29T01:34:00;11.60;68.60
810;DHT22;387;48.772;9.186;2022-12-29T01:36:26;11.60;68.60
810;DHT22;387;48.772;9.186;2022-12-29T01:38:52;11.60;68.60
810;DHT22;387;48.772;9.186;2022-12-29T01:41:17;11.50;68.80
810;DHT22;387;48.772;9.186;2022-12-29T01:43:50;11.50;68.80
810;DHT22;387;48.772;9.186;2022-12-29T01:46:20;11.60;68.60
810;DHT22;387;48.772;9.186;2022-12-29T01:48:53;11.50;68.80
810;DHT22;387;48.772;9.186;2022-12-29T01:51:21;11.50;68.80
810;DHT22;387;48.772;9.186;2022-12-29T01:53:47;11.50;68.90
810;DHT22;387;48.772;9.186;2022-12-29T01:56:15;11.50;68.90
810;DHT22;387;48.772;9.186;2022-12-29T01:58:44;11.50;69.20
810;DHT22;387;48.772;9.186;2022-12-29T02:01:11;11.50;69.10
810;DHT22;387;48.772;9.186;2022-12-29T02:03:37;11.50;69.40
810;DHT22;387;48.772;9.186;2022-12-29T02:06:09;11.40;69.20
810;DHT22;387;48.772;9.186;2022-12-29T02:08:38;11.50;69.40
810;DHT22;387;48.772;9.186;2022-12-29T02:11:03;11.40;69.40
810;DHT22;387;48.772;9.186;2022-12-29T02:13:30;11.30;69.40
810;DHT22;387;48.772;9.186;2022-12-29T02:16:18;11.40;69.50
810;DHT22;387;48.772;9.186;2022-12-29T02:22:02;11.40;69.50
810;DHT22;387;48.772;9.186;2022-12-29T02:30:11;11.50;69.40
810;DHT22;387;48.772;9.186;2022-12-29T02:35:35;11.50;69.10
810;DHT22;387;48.772;9.186;2022-12-29T02:38:15;11.50;69.20
810;DHT22;387;48.772;9.186;2022-12-29T02:40:46;11.50;68.80
810;DHT22;387;48.772;9.186;2022-12-29T02:43:44;11.60;68.80
810;DHT22;387;48.772;9.186;2022-12-29T02:46:36;11.60;68.60
810;DHT22;387;48.772;9.186;2022-12-29T02:49:15;11.50;68.90
810;DHT22;387;48.772;9.186;2022-12-29T02:51:55;11.60;68.80
810;DHT22;387;48.772;9.186;2022-12-29T02:54:24;11.60;68.60
810;DHT22;387;48.772;9.186;2022-12-29T02:57:12;11.70;68.60
810;DHT22;387;48.772;9.186;2022-12-29T02:59:40;11.70;68.60
810;DHT22;387;48.772;9.186;2022-12-29T03:13:08;11.70;68.90
810;DHT22;387;48.772;9.186;2022-12-29T03:16:14;11.70;69.10
810;DHT22;387;48.772;9.186;2022-12-29T03:19:10;11.70;69.10
810;DHT22;387;48.772;9.186;2022-12-29T03:21:44;11.70;69.10
810;DHT22;387;48.772;9.186;2022-12-29T03:24:34;11.70;68.90
810;DHT22;387;48.772;9.186;2022-12-29T03:27:03;11.80;68.80
810;DHT22;387;48.772;9.186;2022-12-29T03:29:33;11.80;68.80
810;DHT22;387;48.772;9.186;2022-12-29T03:32:01;11.80;68.60
810;DHT22;387;48.772;9.186;2022-12-29T03:34:28;11.90;68.50
810;DHT22;387;48.772;9.186;2022-12-29T03:37:05;11.90;68.50
810;DHT22;387;48.772;9.186;2022-12-29T03:39:31;12.00;68.50
810;DHT22;387;48.772;9.186;2022-12-29T03:42:01;12.00;68.50
810;DHT22;387;48.772;9.186;2022-12-29T03:44:37;12.00;68.50
810;DHT22;387;48.772;9.186;2022-12-29T03:47:03;12.00;68.60
810;DHT22;387;48.772;9.186;2022-12-29T03:49:29;12.00;68.50
810;DHT22;387;48.772;9.186;2022-12-29T03:51:55;12.10;68.50
810;DHT22;387;48.772;9.186;2022-12-29T03:54:21;12.10;68.60
810;DHT22;387;48.772;9.186;2022-12-29T03:56:46;12.20;68.60
810;DHT22;387;48.772;9.186;2022-12-29T03:59:12;12.20;68.50
810;DHT22;387;48.772;9.186;2022-12-29T04:01:37;12.20;68.60
810;DHT22;387;48.772;9.186;2022-12-29T04:04:03;12.20;68.60
810;DHT22;387;48.772;9.186;2022-12-29T04:06:29;12.30;68.60
810;DHT22;387;48.772;9.186;2022-12-29T04:08:54;12.20;68.80
810;DHT22;387;48.772;9.186;2022-12-29T04:11:21;12.20;68.60
810;DHT22;387;48.772;9.186;2022-12-29T04:13:47;12.20;68.60
810;DHT22;387;48.772;9.186;2022-12-29T04:16:12;12.20;68.60
810;DHT22;387;48.772;9.186;2022-12-29T04:18:38;12.10;69.10
810;DHT22;387;48.772;9.186;2022-12-29T04:21:03;12.10;69.40
810;DHT22;387;48.772;9.186;2022-12-29T04:23:32;12.10;69.50
810;DHT22;387;48.772;9.186;2022-12-29T04:25:58;12.10;69.70
810;DHT22;387;48.772;9.186;2022-12-29T04:28:23;12.10;69.70
810;DHT22;387;48.772;9.186;2022-12-29T04:30:49;12.10;69.80
810;DHT22;387;48.772;9.186;2022-12-29T04:33:15;12.10;69.80
810;DHT22;387;48.772;9.186;2022-12-29T04:35:42;12.00;69.90
810;DHT22;387;48.772;9.186;2022-12-29T04:38:08;12.00;70.10
810;DHT22;387;48.772;9.186;2022-12-29T04:40:34;12.00;70.20
810;DHT22;387;48.772;9.186;2022-12-29T04:43:00;12.00;70.40
810;DHT22;387;48.772;9.186;2022-12-29T04:45:25;12.00;70.50
810;DHT22;387;48.772;9.186;2022-12-29T04:47:51;12.00;70.50
810;DHT22;387;48.772;9.186;2022-12-29T04:50:17;12.00;70.70
810;DHT22;387;48.772;9.186;2022-12-29T04:52:42;12.00;70.70
810;DHT22;387;48.772;9.186;2022-12-29T04:55:08;12.10;70.80
810;DHT22;387;48.772;9.186;2022-12-29T04:57:34;12.10;70.80
810;DHT22;387;48.772;9.186;2022-12-29T05:00:00;12.10;70.80
810;DHT22;387;48.772;9.186;2022-12-29T05:02:25;12.10;71.00
810;DHT22;387;48.772;9.186;2022-12-29T05:04:51;12.00;71.00
810;DHT22;387;48.772;9.186;2022-12-29T05:07:16;12.00;71.10
810;DHT22;387;48.772;9.186;2022-12-29T05:09:42;12.00;71.10
810;DHT22;387;48.772;9.186;2022-12-29T05:12:07;12.10;71.00
810;DHT22;387;48.772;9.186;2022-12-29T05:14:33;12.10;71.00
810;DHT22;387;48.772;9.186;2022-12-29T05:16:59;12.10;71.00
810;DHT22;387;48.772;9.186;2022-12-29T05:19:24;12.10;71.00
810;DHT22;387;48.772;9.186;2022-12-29T05:21:50;12.20;71.00
810;DHT22;387;48.772;9.186;2022-12-29T05:24:15;12.10;71.00
810;DHT22;387;48.772;9.186;2022-12-29T05:26:41;12.10;71.00
810;DHT22;387;48.772;9.186;2022-12-29T05:29:07;12.10;71.00
810;DHT22;387;48.772;9.186;2022-12-29T05:31:33;12.10;71.10
810;DHT22;387;48.772;9.186;2022-12-29T05:34:00;12.00;71.10
810;DHT22;387;48.772;9.186;2022-12-29T05:36:26;12.10;71.10
810;DHT22;387;48.772;9.186;2022-12-29T05:38:52;12.00;71.10
810;DHT22;387;48.772;9.186;2022-12-29T05:41:17;12.00;71.30
810;DHT22;387;48.772;9.186;2022-12-29T05:43:43;12.00;71.30
810;DHT22;387;48.772;9.186;2022-12-29T05:46:08;12.00;71.40
810;DHT22;387;48.772;9.186;2022-12-29T05:48:34;12.00;71.30
810;DHT22;387;48.772;9.186;2022-12-29T05:51:00;12.00;71.30
810;DHT22;387;48.772;9.186;2022-12-29T05:53:25;12.00;71.30
810;DHT22;387;48.772;9.186;2022-12-29T05:55:51;12.00;71.10
810;DHT22;387;48.772;9.186;2022-12-29T05:58:17;12.10;71.00
810;DHT22;387;48.772;9.186;2022-12-29T06:00:43;12.10;71.00
810;DHT22;387;48.772;9.186;2022-12-29T06:03:09;12.20;70.70
810;DHT22;387;48.772;9.186;2022-12-29T06:05:34;12.20;70.70
810;DHT22;387;48.772;9.186;2022-12-29T06:08:00;12.20;70.70
810;DHT22;387;48.772;9.186;2022-12-29T06:10:25;12.20;70.50
810;DHT22;387;48.772;9.186;2022-12-29T06:12:51;12.20;70.50
810;DHT22;387;48.772;9.186;2022-12-29T06:15:17;12.20;70.40
810;DHT22;387;48.772;9.186;2022-12-29T06:17:43;12.20;70.20
810;DHT22;387;48.772;9.186;2022-12-29T06:20:09;12.20;70.20
810;DHT22;387;48.772;9.186;2022-12-29T06:22:35;12.20;70.20
810;DHT22;387;48.772;9.186;2022-12-29T06:25:01;12.20;70.20
810;DHT22;387;48.772;9.186;2022-12-29T06:27:27;12.20;70.20
810;DHT22;387;48.772;9.186;2022-12-29T06:29:53;12.10;70.40
810;DHT22;387;48.772;9.186;2022-12-29T06:32:19;12.10;70.50
810;DHT22;387;48.772;9.186;2022-12-29T06:34:44;12.10;70.40
810;DHT22;387;48.772;9.186;2022-12-29T06:37:10;12.10;70.10
810;DHT22;387;48.772;9.186;2022-12-29T06:39:36;12.00;69.90
810;DHT22;387;48.772;9.186;2022-12-29T06:42:02;12.00;69.90
810;DHT22;387;48.772;9.186;2022-12-29T06:44:28;12.00;70.10
810;DHT22;387;48.772;9.186;2022-12-29T06:46:53;12.00;69.90
810;DHT22;387;48.772;9.186;2022-12-29T06:49:19;12.00;69.80
810;DHT22;387;48.772;9.186;2022-12-29T06:51:45;11.90;69.80
810;DHT22;387;48.772;9.186;2022-12-29T06:54:10;11.90;69.70
810;DHT22;387;48.772;9.186;2022-12-29T06:56:36;11.90;69.70
810;DHT22;387;48.772;9.186;2022-12-29T06:59:01;11.80;69.70
810;DHT22;387;48.772;9.186;2022-12-29T07:01:27;11.80;69.70
810;DHT22;387;48.772;9.186;2022-12-29T07:03:53;11.80;69.50
810;DHT22;387;48.772;9.186;2022-12-29T07:06:18;11.80;69.70
810;DHT22;387;48.772;9.186;2022-12-29T07:08:44;11.80;69.70
810;DHT22;387;48.772;9.186;2022-12-29T07:11:10;11.80;69.50
810;DHT22;387;48.772;9.186;2022-12-29T07:13:36;11.80;69.70
810;DHT22;387;48.772;9.186;2022-12-29T07:16:06;11.80;69.70
810;DHT22;387;48.772;9.186;2022-12-29T07:18:31;11.80;69.70
810;DHT22;387;48.772;9.186;2022-12-29T07:20:57;11.80;69.70
810;DHT22;387;48.772;9.186;2022-12-29T07:23:23;11.80;69.70
810;DHT22;387;48.772;9.186;2022-12-29T07:25:48;11.70;69.90
810;DHT22;387;48.772;9.186;2022-12-29T07:28:14;11.70;70.10
810;DHT22;387;48.772;9.186;2022-12-29T07:30:39;11.70;70.20
810;DHT22;387;48.772;9.186;2022-12-29T07:33:05;11.70;70.20
810;DHT22;387;48.772;9.186;2022-12-29T07:35:31;11.60;70.20
810;DHT22;387;48.772;9.186;2022-12-29T07:37:56;11.60;70.20
810;DHT22;387;48.772;9.186;2022-12-29T07:40:22;11.60;70.40
810;DHT22;387;48.772;9.186;2022-12-29T07:42:47;11.60;70.40
810;DHT22;387;48.772;9.186;2022-12-29T07:45:13;11.60;70.40
810;DHT22;387;48.772;9.186;2022-12-29T07:47:38;11.70;70.40
810;DHT22;387;48.772;9.186;2022-12-29T07:50:05;11.70;70.20
810;DHT22;387;48.772;9.186;2022-12-29T07:52:30;11.80;70.10
810;DHT22;387;48.772;9.186;2022-12-29T07:54:56;11.80;70.10
810;DHT22;387;48.772;9.186;2022-12-29T07:57:22;11.90;69.90
810;DHT22;387;48.772;9.186;2022-12-29T07:59:47;12.00;69.80
810;DHT22;387;48.772;9.186;2022-12-29T08:02:13;12.00;69.80
810;DHT22;387;48.772;9.186;2022-12-29T08:04:38;12.10;69.90
810;DHT22;387;48.772;9.186;2022-12-29T08:07:04;12.10;70.10
810;DHT22;387;48.772;9.186;2022-12-29T08:09:29;12.00;69.90
810;DHT22;387;48.772;9.186;2022-12-29T08:11:55;12.00;69.90
810;DHT22;387;48.772;9.186;2022-12-29T08:14:21;12.00;70.10
810;DHT22;387;48.772;9.186;2022-12-29T08:16:46;12.10;69.90
810;DHT22;387;48.772;9.186;2022-12-29T08:19:12;12.10;70.10
810;DHT22;387;48.772;9.186;2022-12-29T08:21:38;12.10;70.10
810;DHT22;387;48.772;9.186;2022-12-29T08:24:04;12.10;69.90
810;DHT22;387;48.772;9.186;2022-12-29T08:26:30;12.10;69.90
810;DHT22;387;48.772;9.186;2022-12-29T08:28:55;12.20;69.90
810;DHT22;387;48.772;9.186;2022-12-29T08:31:22;12.20;70.10
810;DHT22;387;48.772;9.186;2022-12-29T08:33:48;12.20;70.10
810;DHT22;387;48.772;9.186;2022-12-29T08:36:14;12.20;69.90
810;DHT22;387;48.772;9.186;2022-12-29T08:38:39;12.20;69.90
810;DHT22;387;48.772;9.186;2022-12-29T08:41:05;12.30;69.90
810;DHT22;387;48.772;9.186;2022-12-29T08:43:30;12.30;69.90
810;DHT22;387;48.772;9.186;2022-12-29T08:45:58;12.20;69.90
810;DHT22;387;48.772;9.186;2022-12-29T08:48:24;12.30;69.90
810;DHT22;387;48.772;9.186;2022-12-29T08:50:50;12.20;70.10
810;DHT22;387;48.772;9.186;2022-12-29T08:53:17;12.20;69.90
810;DHT22;387;48.772;9.186;2022-12-29T08:55:45;12.30;69.90
810;DHT22;387;48.772;9.186;2022-12-29T08:58:11;12.30;69.90
810;DHT22;387;48.772;9.186;2022-12-29T09:00:40;12.30;69.80
810;DHT22;387;48.772;9.186;2022-12-29T09:03:06;12.40;69.80
810;DHT22;387;48.772;9.186;2022-12-29T09:05:32;12.40;69.80
810;DHT22;387;48.772;9.186;2022-12-29T09:07:57;12.40;69.80
810;DHT22;387;48.772;9.186;2022-12-29T09:10:23;12.40;69.90
810;DHT22;387;48.772;9.186;2022-12-29T09:12:49;12.50;69.50
810;DHT22;387;48.772;9.186;2022-12-29T09:15:14;12.60;69.50
810;DHT22;387;48.772;9.186;2022-12-29T09:17:41;12.60;69.20
810;DHT22;387;48.772;9.186;2022-12-29T09:20:14;12.70;69.20
810;DHT22;387;48.772;9.186;2022-12-29T09:22:47;12.70;68.90
810;DHT22;387;48.772;9.186;2022-12-29T09:25:26;12.80;68.80
810;DHT22;387;48.772;9.186;2022-12-29T09:27:53;12.90;68.50
810;DHT22;387;48.772;9.186;2022-12-29T09:30:20;12.90;68.30
810;DHT22;387;48.772;9.186;2022-12-29T09:32:46;12.90;68.30
810;DHT22;387;48.772;9.186;2022-12-29T09:35:13;13.00;68.20
810;DHT22;387;48.772;9.186;2022-12-29T09:37:38;13.00;68.00
810;DHT22;387;48.772;9.186;2022-12-29T09:40:05;13.00;68.00
810;DHT22;387;48.772;9.186;2022-12-29T09:42:45;13.10;67.90
810;DHT22;387;48.772;9.186;2022-12-29T09:45:29;13.10;67.90
810;DHT22;387;48.772;9.186;2022-12-29T09:47:57;13.10;67.90
810;DHT22;387;48.772;9.186;2022-12-29T09:50:30;13.20;67.70
810;DHT22;387;48.772;9.186;2022-12-29T09:55:58;13.20;67.90
810;DHT22;387;48.772;9.186;2022-12-29T09:58:57;13.30;67.50
810;DHT22;387;48.772;9.186;2022-12-29T10:03:56;13.40;67.50
810;DHT22;387;48.772;9.186;2022-12-29T10:09:29;13.40;67.70
810;DHT22;387;48.772;9.186;2022-12-29T10:12:11;13.40;67.90
810;DHT22;387;48.772;9.186;2022-12-29T10:17:47;13.40;68.00
810;DHT22;387;48.772;9.186;2022-12-29T10:25:41;13.50;67.90
810;DHT22;387;48.772;9.186;2022-12-29T10:28:23;13.60;67.70
810;DHT22;387;48.772;9.186;2022-12-29T10:30:50;13.60;67.90
810;DHT22;387;48.772;9.186;2022-12-29T10:33:31;13.60;67.90
810;DHT22;387;48.772;9.186;2022-12-29T10:35:58;13.70;67.90
810;DHT22;387;48.772;9.186;2022-12-29T10:39:02;13.70;67.70
810;DHT22;387;48.772;9.186;2022-12-29T10:41:55;13.80;67.90
810;DHT22;387;48.772;9.186;2022-12-29T10:44:19;13.90;67.70
810;DHT22;387;48.772;9.186;2022-12-29T10:46:54;13.90;67.70
810;DHT22;387;48.772;9.186;2022-12-29T10:49:20;14.00;67.50
810;DHT22;387;48.772;9.186;2022-12-29T10:51:47;14.10;67.00
810;DHT22;387;48.772;9.186;2022-12-29T10:54:18;14.20;66.90
810;DHT22;387;48.772;9.186;2022-12-29T10:57:00;14.40;66.90
810;DHT22;387;48.772;9.186;2022-12-29T10:59:30;14.60;66.10
810;DHT22;387;48.772;9.186;2022-12-29T11:05:15;15.00;64.80
810;DHT22;387;48.772;9.186;2022-12-29T11:07:47;15.10;64.50
810;DHT22;387;48.772;9.186;2022-12-29T11:10:35;14.90;64.50
810;DHT22;387;48.772;9.186;2022-12-29T11:13:09;14.70;65.00
810;DHT22;387;48.772;9.186;2022-12-29T11:15:40;14.70;65.40
810;DHT22;387;48.772;9.186;2022-12-29T11:18:18;14.60;65.40
810;DHT22;387;48.772;9.186;2022-12-29T11:20:44;14.50;65.70
810;DHT22;387;48.772;9.186;2022-12-29T11:23:31;14.50;66.30
810;DHT22;387;48.772;9.186;2022-12-29T11:28:36;14.20;66.90
810;DHT22;387;48.772;9.186;2022-12-29T11:31:04;14.20;67.00
810;DHT22;387;48.772;9.186;2022-12-29T11:33:31;14.10;67.20
810;DHT22;387;48.772;9.186;2022-12-29T11:35:59;14.20;67.00
810;DHT22;387;48.772;9.186;2022-12-29T11:38:35;14.10;67.20
810;DHT22;387;48.772;9.186;2022-12-29T11:41:02;14.10;67.50
810;DHT22;387;48.772;9.186;2022-12-29T11:43:36;14.00;68.60
810;DHT22;387;48.772;9.186;2022-12-29T11:46:02;13.90;69.40
810;DHT22;387;48.772;9.186;2022-12-29T11:48:33;13.70;70.50
810;DHT22;387;48.772;9.186;2022-12-29T11:51:03;13.50;72.00
810;DHT22;387;48.772;9.186;2022-12-29T11:56:09;13.10;73.60
810;DHT22;387;48.772;9.186;2022-12-29T11:58:37;13.10;72.90
810;DHT22;387;48.772;9.186;2022-12-29T12:01:23;13.10;72.70
810;DHT22;387;48.772;9.186;2022-12-29T12:04:15;13.10;72.70
810;DHT22;387;48.772;9.186;2022-12-29T12:06:47;13.20;73.20
810;DHT22;387;48.772;9.186;2022-12-29T12:09:37;13.10;73.20
810;DHT22;387;48.772;9.186;2022-12-29T12:12:09;13.20;73.50
810;DHT22;387;48.772;9.186;2022-12-29T12:14:46;13.10;73.20
810;DHT22;387;48.772;9.186;2022-12-29T12:17:24;13.20;73.30
810;DHT22;387;48.772;9.186;2022-12-29T12:20:00;13.30;73.30
810;DHT22;387;48.772;9.186;2022-12-29T12:22:41;13.30;72.00
810;DHT22;387;48.772;9.186;2022-12-29T12:25:19;13.30;71.70
810;DHT22;387;48.772;9.186;2022-12-29T12:28:09;13.30;71.80
810;DHT22;387;48.772;9.186;2022-12-29T12:30:43;13.30;71.60
810;DHT22;387;48.772;9.186;2022-12-29T12:33:27;13.30;71.40
810;DHT22;387;48.772;9.186;2022-12-29T12:38:49;13.40;71.30
810;DHT22;387;48.772;9.186;2022-12-29T12:41:34;13.40;71.60
810;DHT22;387;48.772;9.186;2022-12-29T12:49:38;13.00;74.30
810;DHT22;387;48.772;9.186;2022-12-29T12:52:22;12.90;74.60
810;DHT22;387;48.772;9.186;2022-12-29T12:54:56;12.90;75.10
810;DHT22;387;48.772;9.186;2022-12-29T13:00:18;12.90;74.80
810;DHT22;387;48.772;9.186;2022-12-29T13:03:10;13.00;74.60
810;DHT22;387;48.772;9.186;2022-12-29T13:09:00;13.20;74.20
810;DHT22;387;48.772;9.186;2022-12-29T13:11:50;13.30;74.00
810;DHT22;387;48.772;9.186;2022-12-29T13:17:30;13.40;73.60
810;DHT22;387;48.772;9.186;2022-12-29T13:23:09;13.30;73.70
810;DHT22;387;48.772;9.186;2022-12-29T13:25:40;13.40;73.50
810;DHT22;387;48.772;9.186;2022-12-29T13:31:13;13.40;73.30
810;DHT22;387;48.772;9.186;2022-12-29T13:36:45;13.30;73.60
810;DHT22;387;48.772;9.186;2022-12-29T13:39:19;13.30;73.70
810;DHT22;387;48.772;9.186;2022-12-29T13:41:50;13.10;74.00
810;DHT22;387;48.772;9.186;2022-12-29T13:44:23;13.10;74.20
810;DHT22;387;48.772;9.186;2022-12-29T13:46:49;13.10;74.20
810;DHT22;387;48.772;9.186;2022-12-29T13:49:17;13.00;74.30
810;DHT22;387;48.772;9.186;2022-12-29T13:51:48;13.00;74.50
810;DHT22;387;48.772;9.186;2022-12-29T13:57:40;13.00;74.50
810;DHT22;387;48.772;9.186;2022-12-29T14:00:16;13.00;74.60
810;DHT22;387;48.772;9.186;2022-12-29T14:07:43;12.90;75.10
810;DHT22;387;48.772;9.186;2022-12-29T14:10:34;12.90;75.10
810;DHT22;387;48.772;9.186;2022-12-29T14:13:11;12.90;75.20
810;DHT22;387;48.772;9.186;2022-12-29T14:15:43;12.90;75.20
810;DHT22;387;48.772;9.186;2022-12-29T14:18:16;13.00;75.10
810;DHT22;387;48.772;9.186;2022-12-29T14:23:36;13.00;74.90
810;DHT22;387;48.772;9.186;2022-12-29T14:28:43;12.90;75.40
810;DHT22;387;48.772;9.186;2022-12-29T14:33:41;12.80;75.50
810;DHT22;387;48.772;9.186;2022-12-29T14:36:37;12.80;75.70
810;DHT22;387;48.772;9.186;2022-12-29T14:39:30;12.80;75.70
810;DHT22;387;48.772;9.186;2022-12-29T14:42:00;12.90;75.50
810;DHT22;387;48.772;9.186;2022-12-29T14:44:26;12.80;75.40
810;DHT22;387;48.772;9.186;2022-12-29T14:46:56;12.70;75.70
810;DHT22;387;48.772;9.186;2022-12-29T14:49:26;12.70;75.70
810;DHT22;387;48.772;9.186;2022-12-29T14:51:54;12.70;75.70
810;DHT22;387;48.772;9.186;2022-12-29T14:57:07;12.70;75.50
810;DHT22;387;48.772;9.186;2022-12-29T14:59:35;12.70;75.50
810;DHT22;387;48.772;9.186;2022-12-29T15:02:04;12.70;75.50
810;DHT22;387;48.772;9.186;2022-12-29T15:04:36;12.70;75.50
810;DHT22;387;48.772;9.186;2022-12-29T15:07:07;12.70;75.50
810;DHT22;387;48.772;9.186;2022-12-29T15:10:06;12.70;75.50
810;DHT22;387;48.772;9.186;2022-12-29T15:12:40;12.70;75.40
810;DHT22;387;48.772;9.186;2022-12-29T15:15:27;12.60;75.10
810;DHT22;387;48.772;9.186;2022-12-29T15:17:55;12.60;75.10
810;DHT22;387;48.772;9.186;2022-12-29T15:20:25;12.60;74.90
810;DHT22;387;48.772;9.186;2022-12-29T15:23:07;12.50;74.80
810;DHT22;387;48.772;9.186;2022-12-29T15:25:35;12.50;74.80
810;DHT22;387;48.772;9.186;2022-12-29T15:28:04;12.50;74.80
810;DHT22;387;48.772;9.186;2022-12-29T15:30:30;12.50;74.60
810;DHT22;387;48.772;9.186;2022-12-29T15:32:56;12.50;74.60
810;DHT22;387;48.772;9.186;2022-12-29T15:35:36;12.50;74.60
810;DHT22;387;48.772;9.186;2022-12-29T15:38:25;12.50;74.60
810;DHT22;387;48.772;9.186;2022-12-29T15:40:54;12.50;74.50
810;DHT22;387;48.772;9.186;2022-12-29T15:43:32;12.50;74.50
810;DHT22;387;48.772;9.186;2022-12-29T15:46:02;12.40;74.60
810;DHT22;387;48.772;9.186;2022-12-29T15:48:28;12.50;74.60
810;DHT22;387;48.772;9.186;2022-12-29T15:50:54;12.50;74.60
810;DHT22;387;48.772;9.186;2022-12-29T15:53:26;12.50;74.60
810;DHT22;387;48.772;9.186;2022-12-29T15:55:56;12.50;74.60
810;DHT22;387;48.772;9.186;2022-12-29T15:58:27;12.60;74.30
810;DHT22;387;48.772;9.186;2022-12-29T16:00:59;12.70;74.30
810;DHT22;387;48.772;9.186;2022-12-29T16:03:26;12.70;74.80
810;DHT22;387;48.772;9.186;2022-12-29T16:06:06;12.60;75.80
810;DHT22;387;48.772;9.186;2022-12-29T16:08:36;12.10;77.60
810;DHT22;387;48.772;9.186;2022-12-29T16:11:22;11.90;79.20
810;DHT22;387;48.772;9.186;2022-12-29T16:13:50;11.80;79.70
810;DHT22;387;48.772;9.186;2022-12-29T16:16:38;11.70;79.90
810;DHT22;387;48.772;9.186;2022-12-29T16:19:19;11.50;80.60
810;DHT22;387;48.772;9.186;2022-12-29T16:21:47;11.30;81.80
810;DHT22;387;48.772;9.186;2022-12-29T16:24:18;11.20;82.40
810;DHT22;387;48.772;9.186;2022-12-29T16:26:54;10.90;82.80
810;DHT22;387;48.772;9.186;2022-12-29T16:29:22;10.80;83.60
810;DHT22;387;48.772;9.186;2022-12-29T16:34:32;10.90;84.30
810;DHT22;387;48.772;9.186;2022-12-29T16:37:02;10.90;84.00
810;DHT22;387;48.772;9.186;2022-12-29T16:39:33;11.00;84.10
810;DHT22;387;48.772;9.186;2022-12-29T16:41:59;10.90;83.70
810;DHT22;387;48.772;9.186;2022-12-29T16:44:31;10.90;83.80
810;DHT22;387;48.772;9.186;2022-12-29T16:49:36;11.00;84.00
810;DHT22;387;48.772;9.186;2022-12-29T16:52:17;10.90;83.80
810;DHT22;387;48.772;9.186;2022-12-29T16:54:58;10.90;84.60
810;DHT22;387;48.772;9.186;2022-12-29T16:57:31;10.90;85.00
810;DHT22;387;48.772;9.186;2022-12-29T17:00:01;10.80;85.70
810;DHT22;387;48.772;9.186;2022-12-29T17:02:29;10.80;86.30
810;DHT22;387;48.772;9.186;2022-12-29T17:04:56;10.60;86.80
810;DHT22;387;48.772;9.186;2022-12-29T17:07:26;10.60;87.30
810;DHT22;387;48.772;9.186;2022-12-29T17:09:52;10.50;87.70
810;DHT22;387;48.772;9.186;2022-12-29T17:12:29;10.40;87.80
810;DHT22;387;48.772;9.186;2022-12-29T17:17:44;10.40;88.40
810;DHT22;387;48.772;9.186;2022-12-29T17:20:22;10.50;88.90
810;DHT22;387;48.772;9.186;2022-12-29T17:22:49;10.60;88.70
810;DHT22;387;48.772;9.186;2022-12-29T17:25:18;10.60;89.00
810;DHT22;387;48.772;9.186;2022-12-29T17:27:50;10.50;88.90
810;DHT22;387;48.772;9.186;2022-12-29T17:30:20;10.50;89.20
810;DHT22;387;48.772;9.186;2022-12-29T17:35:19;10.50;89.30
810;DHT22;387;48.772;9.186;2022-12-29T17:37:46;10.50;89.70
810;DHT22;387;48.772;9.186;2022-12-29T17:40:29;10.40;90.10
810;DHT22;387;48.772;9.186;2022-12-29T17:42:57;10.40;90.30
810;DHT22;387;48.772;9.186;2022-12-29T17:45:31;10.40;90.30
810;DHT22;387;48.772;9.186;2022-12-29T17:47:57;10.40;90.30
810;DHT22;387;48.772;9.186;2022-12-29T17:50:26;10.40;90.40
810;DHT22;387;48.772;9.186;2022-12-29T17:53:02;10.40;90.60
810;DHT22;387;48.772;9.186;2022-12-29T17:55:29;10.40;90.80
810;DHT22;387;48.772;9.186;2022-12-29T17:57:54;10.50;90.80
810;DHT22;387;48.772;9.186;2022-12-29T18:00:26;10.50;90.80
810;DHT22;387;48.772;9.186;2022-12-29T18:02:53;10.50;90.90
810;DHT22;387;48.772;9.186;2022-12-29T18:05:24;10.60;90.90
810;DHT22;387;48.772;9.186;2022-12-29T18:07:51;10.60;90.80
810;DHT22;387;48.772;9.186;2022-12-29T18:10:18;10.60;90.70
810;DHT22;387;48.772;9.186;2022-12-29T18:12:45;10.60;90.70
810;DHT22;387;48.772;9.186;2022-12-29T18:15:23;10.50;90.80
810;DHT22;387;48.772;9.186;2022-12-29T18:17:54;10.60;90.90
810;DHT22;387;48.772;9.186;2022-12-29T18:20:22;10.50;90.90
810;DHT22;387;48.772;9.186;2022-12-29T18:22:48;10.50;91.00
810;DHT22;387;48.772;9.186;2022-12-29T18:27:47;10.40;90.70
810;DHT22;387;48.772;9.186;2022-12-29T18:30:13;10.40;90.30
810;DHT22;387;48.772;9.186;2022-12-29T18:32:39;10.30;90.10
810;DHT22;387;48.772;9.186;2022-12-29T18:35:14;10.20;90.50
810;DHT22;387;48.772;9.186;2022-12-29T18:37:41;10.10;91.10
810;DHT22;387;48.772;9.186;2022-12-29T18:40:08;10.00;91.20
810;DHT22;387;48.772;9.186;2022-12-29T18:42:36;10.00;91.50
810;DHT22;387;48.772;9.186;2022-12-29T18:45:01;10.00;91.70